GAP2203 RPLL-RPVR
Flight info
| Callsign | GAP2203 |
|---|---|
| Flight time | 0h 40m |
| Altitude | 25000 |
| Route | IPATA2R IPATA DCT SAGAM TR16 SIBUN DCT |
| Aircraft | A320/M-SDE3FGHIRWY/LB1 |
Departure
| Time | 2026-04-19 05:39 |
|---|---|
| Airport | Ninoy Aquino International Airport (RPLL) |
Arrival
| Time | 2026-04-19 06:19 |
|---|---|
| Airport | Roxas Airport (RPVR) |
| Time | Latitude | Longitude | Altitude | Speed | Heading |
|---|---|---|---|---|---|
| 2026-04-19 05:19 | 14.51163 | 121.01277 | 82 ft | 0 kts | 217° |
| 2026-04-19 05:26 | 14.51170 | 121.01283 | 82 ft | 2 kts | 217° |
| 2026-04-19 05:27 | 14.51182 | 121.01292 | 82 ft | 2 kts | 217° |
| 2026-04-19 05:27 | 14.51194 | 121.01301 | 82 ft | 1 kts | 217° |
| 2026-04-19 05:27 | 14.51204 | 121.01308 | 82 ft | 2 kts | 202° |
| 2026-04-19 05:27 | 14.51220 | 121.01311 | 82 ft | 2 kts | 179° |
| 2026-04-19 05:28 | 14.51236 | 121.01308 | 82 ft | 2 kts | 155° |
| 2026-04-19 05:28 | 14.51245 | 121.01303 | 82 ft | 0 kts | 140° |
| 2026-04-19 05:28 | 14.51233 | 121.01313 | 82 ft | 7 kts | 137° |
| 2026-04-19 05:28 | 14.51195 | 121.01352 | 82 ft | 7 kts | 134° |
| 2026-04-19 05:29 | 14.51157 | 121.01392 | 82 ft | 7 kts | 134° |
| 2026-04-19 05:29 | 14.51134 | 121.01415 | 82 ft | 2 kts | 134° |
| 2026-04-19 05:29 | 14.51132 | 121.01418 | 82 ft | 0 kts | 134° |
| 2026-04-19 05:31 | 14.51131 | 121.01420 | 82 ft | 1 kts | 134° |
| 2026-04-19 05:31 | 14.51117 | 121.01434 | 82 ft | 3 kts | 134° |
| 2026-04-19 05:31 | 14.51097 | 121.01455 | 82 ft | 4 kts | 134° |
| 2026-04-19 05:31 | 14.51071 | 121.01482 | 82 ft | 5 kts | 135° |
| 2026-04-19 05:32 | 14.51035 | 121.01520 | 82 ft | 8 kts | 135° |
| 2026-04-19 05:32 | 14.50988 | 121.01568 | 82 ft | 10 kts | 134° |
| 2026-04-19 05:32 | 14.50936 | 121.01622 | 82 ft | 11 kts | 134° |
| 2026-04-19 05:32 | 14.50883 | 121.01666 | 82 ft | 9 kts | 171° |
| 2026-04-19 05:33 | 14.50838 | 121.01622 | 82 ft | 10 kts | 240° |
| 2026-04-19 05:33 | 14.50798 | 121.01550 | 82 ft | 12 kts | 240° |
| 2026-04-19 05:33 | 14.50749 | 121.01463 | 82 ft | 15 kts | 240° |
| 2026-04-19 05:33 | 14.50692 | 121.01360 | 82 ft | 17 kts | 240° |
| 2026-04-19 05:34 | 14.50628 | 121.01246 | 82 ft | 19 kts | 240° |
| 2026-04-19 05:34 | 14.50559 | 121.01121 | 82 ft | 20 kts | 240° |
| 2026-04-19 05:34 | 14.50487 | 121.00992 | 82 ft | 20 kts | 240° |
| 2026-04-19 05:34 | 14.50416 | 121.00864 | 82 ft | 20 kts | 240° |
| 2026-04-19 05:35 | 14.50346 | 121.00738 | 81 ft | 20 kts | 240° |
| 2026-04-19 05:35 | 14.50276 | 121.00611 | 82 ft | 20 kts | 240° |
| 2026-04-19 05:35 | 14.50206 | 121.00487 | 82 ft | 20 kts | 240° |
| 2026-04-19 05:35 | 14.50136 | 121.00361 | 82 ft | 20 kts | 240° |
| 2026-04-19 05:36 | 14.50067 | 121.00235 | 82 ft | 20 kts | 240° |
| 2026-04-19 05:36 | 14.49999 | 121.00112 | 82 ft | 19 kts | 240° |
| 2026-04-19 05:36 | 14.49937 | 121.00001 | 82 ft | 16 kts | 241° |
| 2026-04-19 05:36 | 14.49877 | 120.99965 | 82 ft | 9 kts | 163° |
| 2026-04-19 05:37 | 14.49818 | 121.00000 | 82 ft | 9 kts | 149° |
| 2026-04-19 05:37 | 14.49807 | 121.00053 | 82 ft | 8 kts | 65° |
| 2026-04-19 05:37 | 14.49822 | 121.00082 | 82 ft | 0 kts | 59° |
| 2026-04-19 05:38 | 14.49853 | 121.00137 | 82 ft | 34 kts | 60° |
| 2026-04-19 05:38 | 14.50093 | 121.00568 | 82 ft | 101 kts | 61° |
| 2026-04-19 05:38 | 14.50541 | 121.01374 | 82 ft | 156 kts | 60° |
| 2026-04-19 05:38 | 14.51121 | 121.02445 | 363 ft | 176 kts | 62° |
| 2026-04-19 05:39 | 14.51729 | 121.03567 | 986 ft | 175 kts | 62° |
| 2026-04-19 05:39 | 14.52317 | 121.04629 | 1639 ft | 172 kts | 60° |
| 2026-04-19 05:39 | 14.52923 | 121.05687 | 2059 ft | 173 kts | 60° |
| 2026-04-19 05:39 | 14.53546 | 121.06808 | 2313 ft | 184 kts | 60° |
| 2026-04-19 05:40 | 14.54212 | 121.07990 | 2541 ft | 198 kts | 60° |
| 2026-04-19 05:40 | 14.54926 | 121.09255 | 2809 ft | 211 kts | 60° |
| 2026-04-19 05:40 | 14.55686 | 121.10629 | 3014 ft | 230 kts | 61° |
| 2026-04-19 05:40 | 14.56509 | 121.12114 | 3337 ft | 245 kts | 60° |
| 2026-04-19 05:41 | 14.57264 | 121.13729 | 3664 ft | 260 kts | 74° |
| 2026-04-19 05:41 | 14.57562 | 121.15610 | 4117 ft | 271 kts | 85° |
| 2026-04-19 05:41 | 14.57731 | 121.17557 | 4818 ft | 272 kts | 84° |
| 2026-04-19 05:41 | 14.57930 | 121.19490 | 5557 ft | 273 kts | 83° |
| 2026-04-19 05:42 | 14.58147 | 121.21403 | 6291 ft | 275 kts | 82° |
| 2026-04-19 05:42 | 14.58381 | 121.23383 | 7059 ft | 277 kts | 82° |
| 2026-04-19 05:42 | 14.58376 | 121.25341 | 7759 ft | 281 kts | 103° |
| 2026-04-19 05:42 | 14.57497 | 121.27161 | 8444 ft | 287 kts | 130° |
| 2026-04-19 05:43 | 14.55986 | 121.28498 | 9204 ft | 290 kts | 142° |
| 2026-04-19 05:43 | 14.54363 | 121.29704 | 9885 ft | 293 kts | 143° |
| 2026-04-19 05:43 | 14.52683 | 121.30941 | 10470 ft | 301 kts | 143° |
| 2026-04-19 05:43 | 14.50921 | 121.32255 | 10799 ft | 318 kts | 142° |
| 2026-04-19 05:44 | 14.49095 | 121.33634 | 11088 ft | 335 kts | 142° |
| 2026-04-19 05:44 | 14.47160 | 121.35107 | 11368 ft | 351 kts | 142° |
| 2026-04-19 05:44 | 14.45155 | 121.36639 | 11623 ft | 366 kts | 142° |
| 2026-04-19 05:44 | 14.43083 | 121.38225 | 11860 ft | 380 kts | 142° |
| 2026-04-19 05:45 | 14.40910 | 121.39889 | 12058 ft | 393 kts | 142° |
| 2026-04-19 05:45 | 14.38692 | 121.41588 | 12261 ft | 404 kts | 142° |
| 2026-04-19 05:45 | 14.36399 | 121.43344 | 12643 ft | 410 kts | 142° |
| 2026-04-19 05:45 | 14.34098 | 121.45106 | 13070 ft | 414 kts | 141° |
| 2026-04-19 05:46 | 14.31790 | 121.46873 | 13483 ft | 417 kts | 141° |
| 2026-04-19 05:46 | 14.29453 | 121.48662 | 13888 ft | 420 kts | 142° |
| 2026-04-19 05:46 | 14.27102 | 121.50462 | 14304 ft | 423 kts | 142° |
| 2026-04-19 05:46 | 14.24700 | 121.52294 | 14683 ft | 426 kts | 142° |
| 2026-04-19 05:47 | 14.22328 | 121.54099 | 15072 ft | 429 kts | 142° |
| 2026-04-19 05:47 | 14.19910 | 121.55941 | 15446 ft | 431 kts | 142° |
| 2026-04-19 05:47 | 14.17481 | 121.57791 | 15810 ft | 433 kts | 142° |
| 2026-04-19 05:47 | 14.15042 | 121.59649 | 16168 ft | 436 kts | 142° |
| 2026-04-19 05:48 | 14.12592 | 121.61515 | 16498 ft | 438 kts | 142° |
| 2026-04-19 05:48 | 14.10161 | 121.63364 | 16817 ft | 440 kts | 142° |
| 2026-04-19 05:48 | 14.07681 | 121.65253 | 17129 ft | 442 kts | 142° |
| 2026-04-19 05:48 | 14.04980 | 121.67313 | 17473 ft | 445 kts | 142° |
| 2026-04-19 05:49 | 14.02486 | 121.69217 | 17778 ft | 447 kts | 142° |
| 2026-04-19 05:49 | 13.99950 | 121.71153 | 18068 ft | 448 kts | 142° |
| 2026-04-19 05:49 | 13.97449 | 121.73061 | 18374 ft | 449 kts | 142° |
| 2026-04-19 05:49 | 13.94904 | 121.75001 | 18656 ft | 451 kts | 143° |
| 2026-04-19 05:50 | 13.92381 | 121.76924 | 18935 ft | 452 kts | 143° |
| 2026-04-19 05:50 | 13.89798 | 121.78879 | 19196 ft | 454 kts | 144° |
| 2026-04-19 05:50 | 13.87061 | 121.80762 | 19492 ft | 454 kts | 147° |
| 2026-04-19 05:50 | 13.84283 | 121.82426 | 19777 ft | 455 kts | 151° |
| 2026-04-19 05:51 | 13.81455 | 121.83901 | 20006 ft | 456 kts | 154° |
| 2026-04-19 05:51 | 13.78561 | 121.85334 | 20253 ft | 458 kts | 154° |
| 2026-04-19 05:51 | 13.75663 | 121.86760 | 20488 ft | 459 kts | 154° |
| 2026-04-19 05:51 | 13.72758 | 121.88188 | 20722 ft | 460 kts | 154° |
| 2026-04-19 05:52 | 13.69819 | 121.89635 | 20940 ft | 461 kts | 154° |
| 2026-04-19 05:52 | 13.66856 | 121.91097 | 21166 ft | 462 kts | 154° |
| 2026-04-19 05:52 | 13.63941 | 121.92536 | 21384 ft | 462 kts | 154° |
| 2026-04-19 05:52 | 13.61028 | 121.93973 | 21587 ft | 463 kts | 154° |
| 2026-04-19 05:53 | 13.58096 | 121.95421 | 21799 ft | 464 kts | 154° |
| 2026-04-19 05:53 | 13.55176 | 121.96860 | 22003 ft | 465 kts | 155° |
| 2026-04-19 05:53 | 13.52260 | 121.98298 | 22199 ft | 465 kts | 154° |
| 2026-04-19 05:53 | 13.49321 | 121.99747 | 22393 ft | 466 kts | 154° |
| 2026-04-19 05:54 | 13.46372 | 122.01202 | 22579 ft | 467 kts | 155° |
| 2026-04-19 05:54 | 13.43390 | 122.02672 | 22768 ft | 468 kts | 154° |
| 2026-04-19 05:54 | 13.40428 | 122.04131 | 22938 ft | 469 kts | 154° |
| 2026-04-19 05:54 | 13.37437 | 122.05605 | 23113 ft | 470 kts | 154° |
| 2026-04-19 05:55 | 13.34464 | 122.07069 | 23268 ft | 471 kts | 155° |
| 2026-04-19 05:55 | 13.31458 | 122.08552 | 23442 ft | 471 kts | 155° |
| 2026-04-19 05:55 | 13.28467 | 122.10025 | 23607 ft | 472 kts | 155° |
| 2026-04-19 05:55 | 13.25467 | 122.11502 | 23756 ft | 473 kts | 155° |
| 2026-04-19 05:56 | 13.22506 | 122.12959 | 23898 ft | 474 kts | 155° |
| 2026-04-19 05:56 | 13.19506 | 122.14433 | 24027 ft | 475 kts | 155° |
| 2026-04-19 05:56 | 13.16531 | 122.15896 | 24151 ft | 476 kts | 155° |
| 2026-04-19 05:56 | 13.13491 | 122.17390 | 24272 ft | 477 kts | 155° |
| 2026-04-19 05:57 | 13.10485 | 122.18869 | 24392 ft | 478 kts | 155° |
| 2026-04-19 05:57 | 13.07445 | 122.20362 | 24521 ft | 478 kts | 155° |
| 2026-04-19 05:57 | 13.04423 | 122.21846 | 24640 ft | 479 kts | 155° |
| 2026-04-19 05:57 | 13.01393 | 122.23334 | 24764 ft | 479 kts | 155° |
| 2026-04-19 05:58 | 12.98332 | 122.24837 | 24857 ft | 480 kts | 155° |
| 2026-04-19 05:58 | 12.95313 | 122.26320 | 24861 ft | 479 kts | 155° |
| 2026-04-19 05:58 | 12.92282 | 122.27807 | 24864 ft | 479 kts | 155° |
| 2026-04-19 05:58 | 12.89176 | 122.29331 | 24865 ft | 479 kts | 155° |
| 2026-04-19 05:59 | 12.85896 | 122.30941 | 24867 ft | 479 kts | 155° |
| 2026-04-19 05:59 | 12.82686 | 122.32516 | 24870 ft | 479 kts | 155° |
| 2026-04-19 05:59 | 12.79644 | 122.34008 | 24873 ft | 479 kts | 155° |
| 2026-04-19 05:59 | 12.76399 | 122.35597 | 24876 ft | 480 kts | 155° |
| 2026-04-19 06:00 | 12.73108 | 122.37210 | 24879 ft | 480 kts | 155° |
| 2026-04-19 06:00 | 12.69999 | 122.38732 | 24881 ft | 480 kts | 155° |
| 2026-04-19 06:00 | 12.66864 | 122.40269 | 24881 ft | 480 kts | 155° |
| 2026-04-19 06:00 | 12.63861 | 122.41738 | 24882 ft | 480 kts | 155° |
| 2026-04-19 06:01 | 12.60736 | 122.43266 | 24882 ft | 480 kts | 155° |
| 2026-04-19 06:01 | 12.57677 | 122.44764 | 24821 ft | 480 kts | 155° |
| 2026-04-19 06:01 | 12.54680 | 122.46230 | 24088 ft | 478 kts | 155° |
| 2026-04-19 06:01 | 12.51651 | 122.47711 | 23223 ft | 474 kts | 155° |
| 2026-04-19 06:02 | 12.48660 | 122.49175 | 22429 ft | 469 kts | 154° |
| 2026-04-19 06:02 | 12.45654 | 122.50645 | 21645 ft | 465 kts | 154° |
| 2026-04-19 06:02 | 12.42722 | 122.52078 | 20925 ft | 460 kts | 154° |
| 2026-04-19 06:02 | 12.39774 | 122.53485 | 20235 ft | 454 kts | 156° |
| 2026-04-19 06:03 | 12.36812 | 122.54701 | 19543 ft | 450 kts | 159° |
| 2026-04-19 06:03 | 12.33866 | 122.55700 | 18862 ft | 446 kts | 163° |
| 2026-04-19 06:03 | 12.30854 | 122.56543 | 18182 ft | 443 kts | 164° |
| 2026-04-19 06:03 | 12.27881 | 122.57335 | 17500 ft | 439 kts | 164° |
| 2026-04-19 06:04 | 12.24932 | 122.58118 | 16828 ft | 437 kts | 164° |
| 2026-04-19 06:04 | 12.21990 | 122.58900 | 16154 ft | 434 kts | 164° |
| 2026-04-19 06:04 | 12.19069 | 122.59678 | 15486 ft | 431 kts | 164° |
| 2026-04-19 06:04 | 12.16179 | 122.60451 | 14814 ft | 429 kts | 164° |
| 2026-04-19 06:05 | 12.13313 | 122.61216 | 14142 ft | 427 kts | 163° |
| 2026-04-19 06:05 | 12.10429 | 122.61987 | 13454 ft | 424 kts | 163° |
| 2026-04-19 06:05 | 12.07560 | 122.62753 | 12766 ft | 422 kts | 163° |
| 2026-04-19 06:05 | 12.04746 | 122.63505 | 12161 ft | 416 kts | 163° |
| 2026-04-19 06:06 | 12.01969 | 122.64246 | 11767 ft | 403 kts | 163° |
| 2026-04-19 06:06 | 11.99302 | 122.64956 | 11529 ft | 387 kts | 163° |
| 2026-04-19 06:06 | 11.96614 | 122.65673 | 11276 ft | 373 kts | 163° |
| 2026-04-19 06:06 | 11.94115 | 122.66338 | 11034 ft | 359 kts | 163° |
| 2026-04-19 06:07 | 11.91718 | 122.66979 | 10815 ft | 347 kts | 163° |
| 2026-04-19 06:07 | 11.89410 | 122.67593 | 10614 ft | 334 kts | 163° |
| 2026-04-19 06:07 | 11.87039 | 122.68226 | 10423 ft | 321 kts | 162° |
| 2026-04-19 06:07 | 11.84745 | 122.68838 | 10267 ft | 308 kts | 162° |
| 2026-04-19 06:08 | 11.82537 | 122.69428 | 10116 ft | 296 kts | 162° |
| 2026-04-19 06:08 | 11.80489 | 122.69973 | 9893 ft | 289 kts | 162° |
| 2026-04-19 06:08 | 11.78472 | 122.70512 | 9505 ft | 288 kts | 162° |
| 2026-04-19 06:08 | 11.76507 | 122.71038 | 9145 ft | 286 kts | 162° |
| 2026-04-19 06:09 | 11.74568 | 122.71558 | 8799 ft | 285 kts | 162° |
| 2026-04-19 06:09 | 11.72624 | 122.72077 | 8453 ft | 283 kts | 162° |
| 2026-04-19 06:09 | 11.70695 | 122.72594 | 8102 ft | 282 kts | 162° |
| 2026-04-19 06:09 | 11.68777 | 122.73104 | 7762 ft | 280 kts | 162° |
| 2026-04-19 06:10 | 11.66876 | 122.73610 | 7423 ft | 279 kts | 163° |
| 2026-04-19 06:10 | 11.64981 | 122.74114 | 7081 ft | 277 kts | 162° |
| 2026-04-19 06:10 | 11.63100 | 122.74615 | 6741 ft | 276 kts | 162° |
| 2026-04-19 06:10 | 11.61262 | 122.75115 | 6401 ft | 274 kts | 159° |
| 2026-04-19 06:11 | 11.59644 | 122.76080 | 6027 ft | 268 kts | 130° |
| 2026-04-19 06:11 | 11.58686 | 122.77684 | 5696 ft | 263 kts | 110° |
| 2026-04-19 06:11 | 11.58024 | 122.79400 | 5373 ft | 261 kts | 110° |
| 2026-04-19 06:12 | 11.56654 | 122.82888 | 4698 ft | 260 kts | 110° |
| 2026-04-19 06:12 | 11.55962 | 122.84603 | 4365 ft | 259 kts | 111° |
| 2026-04-19 06:12 | 11.55262 | 122.86316 | 4031 ft | 258 kts | 110° |
| 2026-04-19 06:12 | 11.54562 | 122.88026 | 3692 ft | 258 kts | 111° |
| 2026-04-19 06:13 | 11.53612 | 122.89588 | 3374 ft | 258 kts | 137° |
| 2026-04-19 06:13 | 11.52055 | 122.90454 | 3335 ft | 248 kts | 163° |
| 2026-04-19 06:13 | 11.50344 | 122.90552 | 3288 ft | 238 kts | 189° |
| 2026-04-19 06:13 | 11.48841 | 122.89980 | 3236 ft | 226 kts | 213° |
| 2026-04-19 06:14 | 11.47719 | 122.88902 | 3212 ft | 214 kts | 236° |
| 2026-04-19 06:14 | 11.47114 | 122.87570 | 3164 ft | 199 kts | 257° |
| 2026-04-19 06:14 | 11.47005 | 122.86212 | 3007 ft | 186 kts | 278° |
| 2026-04-19 06:14 | 11.47319 | 122.84983 | 2880 ft | 171 kts | 297° |
| 2026-04-19 06:15 | 11.47918 | 122.84003 | 2737 ft | 159 kts | 314° |
| 2026-04-19 06:15 | 11.48710 | 122.83259 | 2501 ft | 152 kts | 326° |
| 2026-04-19 06:15 | 11.49592 | 122.82643 | 2300 ft | 152 kts | 329° |
| 2026-04-19 06:15 | 11.50467 | 122.82050 | 2125 ft | 149 kts | 329° |
| 2026-04-19 06:16 | 11.51303 | 122.81474 | 1906 ft | 139 kts | 329° |
| 2026-04-19 06:16 | 11.52085 | 122.80930 | 1718 ft | 136 kts | 329° |
| 2026-04-19 06:16 | 11.52869 | 122.80383 | 1540 ft | 136 kts | 328° |
| 2026-04-19 06:16 | 11.53659 | 122.79826 | 1357 ft | 136 kts | 328° |
| 2026-04-19 06:17 | 11.54433 | 122.79277 | 1175 ft | 136 kts | 328° |
| 2026-04-19 06:17 | 11.55178 | 122.78699 | 995 ft | 136 kts | 322° |
| 2026-04-19 06:17 | 11.55913 | 122.78082 | 825 ft | 135 kts | 326° |
| 2026-04-19 06:17 | 11.56678 | 122.77524 | 658 ft | 134 kts | 328° |
| 2026-04-19 06:18 | 11.57436 | 122.76981 | 468 ft | 134 kts | 328° |
| 2026-04-19 06:18 | 11.58199 | 122.76424 | 281 ft | 133 kts | 327° |
| 2026-04-19 06:18 | 11.58949 | 122.75879 | 98 ft | 131 kts | 328° |
| 2026-04-19 06:18 | 11.59660 | 122.75370 | 20 ft | 102 kts | 324° |
| 2026-04-19 06:19 | 11.60004 | 122.75120 | 20 ft | 31 kts | 324° |
| 2026-04-19 06:19 | 11.60090 | 122.75055 | 20 ft | 4 kts | 313° |
| 2026-04-19 06:19 | 11.60092 | 122.75022 | 20 ft | 5 kts | 261° |
| 2026-04-19 06:19 | 11.60085 | 122.74979 | 20 ft | 5 kts | 263° |
| 2026-04-19 06:20 | 11.60084 | 122.74958 | 20 ft | 3 kts | 265° |
| 2026-04-19 06:20 | 11.60082 | 122.74936 | 20 ft | 1 kts | 266° |
| 2026-04-19 06:20 | 11.60081 | 122.74927 | 20 ft | 0 kts | 266° |